Time;durP1;ratioP1;P1;durP2;ratioP2;P2;SDS_P1;SDS_P2;PMS_P1;PMS_P2;Temp;Humidity;BMP_temperature;BMP_pressure;BME280_temperature;BME280_humidity;BME280_pressure;Samples;Min_cycle;Max_cycle;Signal;HPM_P1;HPM_P2
2021/06/28 00:01:28;;;;;;;4.97;2.03;;;;;;;18.91;86.61;96672.91;5021434;28;20156;-64
2021/06/28 00:03:54;;;;;;;3.03;1.70;;;;;;;18.93;87.01;96681.59;5022970;28;20091;-64
2021/06/28 00:06:20;;;;;;;3.85;2.25;;;;;;;18.94;88.38;96672.03;5015909;28;20046;-64
2021/06/28 00:08:45;;;;;;;3.63;1.77;;;;;;;19.04;87.65;96679.41;5011295;28;20046;-65
2021/06/28 00:11:12;;;;;;;2.83;1.90;;;;;;;19.06;87.89;96684.53;4993020;28;20536;-66
2021/06/28 00:13:41;;;;;;;3.95;2.03;;;;;;;19.19;87.18;96684.72;5022812;28;20457;-66
2021/06/28 00:16:07;;;;;;;2.58;1.85;;;;;;;19.08;87.15;96679.34;5005631;28;20049;-63
2021/06/28 00:18:34;;;;;;;4.82;2.25;;;;;;;19.04;87.18;96673.84;5006518;28;20049;-64
2021/06/28 00:21:00;;;;;;;3.92;2.22;;;;;;;18.98;87.58;96678.34;5009922;28;20048;-65
2021/06/28 00:23:25;;;;;;;8.13;2.47;;;;;;;18.98;88.65;96685.84;5006089;28;20073;-64
2021/06/28 00:25:51;;;;;;;2.75;1.88;;;;;;;18.93;88.38;96686.38;5002619;28;20502;-64
2021/06/28 00:28:17;;;;;;;4.88;2.00;;;;;;;18.91;88.88;96687.56;5005566;28;20068;-63
2021/06/28 00:30:44;;;;;;;4.05;2.20;;;;;;;18.91;88.10;96684.78;5003737;28;20045;-64
2021/06/28 00:33:12;;;;;;;2.90;2.08;;;;;;;19.04;88.12;96684.19;5007277;28;20045;-63
2021/06/28 00:35:38;;;;;;;3.75;1.92;;;;;;;18.98;86.54;96680.31;5040223;28;20057;-63
2021/06/28 00:38:05;;;;;;;5.22;2.65;;;;;;;18.99;86.59;96682.66;5038963;28;20041;-64
2021/06/28 00:40:31;;;;;;;3.35;2.10;;;;;;;18.82;86.79;96679.00;5004737;28;20038;-66
2021/06/28 00:42:57;;;;;;;4.70;2.20;;;;;;;18.54;88.03;96680.19;5010806;28;20084;-66
2021/06/28 00:45:23;;;;;;;5.93;1.98;;;;;;;18.24;89.73;96679.06;5004553;28;20647;-66
2021/06/28 00:47:52;;;;;;;7.57;2.50;;;;;;;18.08;90.84;96668.59;4985891;28;20058;-65
2021/06/28 00:50:21;;;;;;;4.13;1.98;;;;;;;18.09;91.67;96669.38;5004582;28;20111;-63
2021/06/28 00:52:49;;;;;;;4.68;2.22;;;;;;;18.10;92.20;96670.94;4996901;28;20634;-64
2021/06/28 00:55:15;;;;;;;22.15;2.97;;;;;;;18.09;92.20;96667.38;5006154;28;20069;-64
2021/06/28 00:57:41;;;;;;;3.20;2.20;;;;;;;18.26;91.80;96668.34;5012276;28;20045;-64
2021/06/28 01:00:09;;;;;;;6.13;2.85;;;;;;;18.02;92.18;96658.38;4989545;28;20111;-66
2021/06/28 01:02:35;;;;;;;2.75;2.33;;;;;;;18.07;91.81;96652.38;5011084;28;20092;-65
2021/06/28 01:05:04;;;;;;;5.32;2.40;;;;;;;17.88;93.33;96662.94;4982683;28;20046;-65
2021/06/28 01:07:29;;;;;;;4.85;2.38;;;;;;;18.17;92.17;96654.22;4999177;28;20140;-63
2021/06/28 01:09:55;;;;;;;2.85;1.98;;;;;;;18.00;92.22;96649.72;5012638;28;20065;-65
2021/06/28 01:12:20;;;;;;;3.97;2.65;;;;;;;17.95;92.54;96645.41;5019855;28;20046;-63
2021/06/28 01:14:46;;;;;;;4.78;2.35;;;;;;;17.87;92.52;96644.72;5016969;28;20052;-66
2021/06/28 01:17:12;;;;;;;4.88;2.20;;;;;;;17.83;92.89;96640.41;5007297;28;20041;-64
2021/06/28 01:19:43;;;;;;;2.50;1.95;;;;;;;17.80;92.61;96635.69;5014425;28;20041;-63
2021/06/28 01:22:10;;;;;;;4.93;2.65;;;;;;;17.76;92.80;96639.28;5016371;28;20048;-62
2021/06/28 01:24:36;;;;;;;4.95;2.03;;;;;;;17.83;92.56;96632.09;5016132;28;20042;-64
2021/06/28 01:27:01;;;;;;;4.45;2.47;;;;;;;17.76;92.42;96638.50;5012288;28;20119;-65
2021/06/28 01:29:27;;;;;;;4.38;2.40;;;;;;;17.68;93.27;96637.81;5002195;28;20473;-64
2021/06/28 01:31:52;;;;;;;5.05;2.40;;;;;;;17.74;92.79;96640.91;5022206;28;20045;-64
2021/06/28 01:34:18;;;;;;;4.00;2.60;;;;;;;17.84;92.27;96658.59;5005255;28;20045;-64
2021/06/28 01:36:43;;;;;;;3.70;2.33;;;;;;;17.94;91.62;96654.94;5001861;28;20145;-65
2021/06/28 01:39:09;;;;;;;3.58;2.45;;;;;;;17.95;91.57;96654.53;4975036;28;20046;-64
2021/06/28 01:41:34;;;;;;;4.00;2.42;;;;;;;17.93;91.34;96647.81;5002788;28;20057;-64
2021/06/28 01:43:59;;;;;;;4.22;2.58;;;;;;;17.91;91.63;96647.44;5003347;28;20128;-65
2021/06/28 01:46:25;;;;;;;6.28;2.63;;;;;;;17.90;91.77;96654.19;4995595;28;20046;-64
2021/06/28 01:48:50;;;;;;;3.60;2.45;;;;;;;17.82;91.99;96655.47;4997697;28;20111;-65
2021/06/28 01:51:16;;;;;;;3.95;2.78;;;;;;;17.75;92.33;96646.06;4990690;28;20038;-64
2021/06/28 01:53:41;;;;;;;5.68;2.50;;;;;;;17.73;92.71;96653.97;4982757;28;20446;-64
2021/06/28 01:56:07;;;;;;;4.63;2.75;;;;;;;17.76;92.45;96653.13;4996055;28;20050;-64
2021/06/28 01:58:36;;;;;;;4.43;2.92;;;;;;;17.74;92.73;96655.53;5000767;28;20115;-65
2021/06/28 02:01:05;;;;;;;5.22;2.55;;;;;;;17.68;92.77;96639.78;5000959;28;20042;-64
2021/06/28 02:03:36;;;;;;;5.53;2.80;;;;;;;17.53;93.18;96647.50;5000610;28;20091;-65
2021/06/28 02:06:01;;;;;;;4.45;2.78;;;;;;;17.36;94.08;96654.81;5001372;28;20038;-63
2021/06/28 02:08:31;;;;;;;6.25;2.97;;;;;;;17.25;94.19;96663.25;4996387;28;20153;-65
2021/06/28 02:10:59;;;;;;;6.03;2.85;;;;;;;17.08;95.48;96664.97;5001265;28;20482;-64
2021/06/28 02:13:29;;;;;;;4.65;3.08;;;;;;;16.92;96.21;96654.47;4997023;28;20045;-64
2021/06/28 02:15:54;;;;;;;4.88;2.88;;;;;;;16.89;97.12;96654.50;5001617;28;20030;-65
2021/06/28 02:18:22;;;;;;;7.90;2.65;;;;;;;16.97;97.45;96644.94;4997115;28;20044;-63
2021/06/28 02:20:48;;;;;;;4.10;2.50;;;;;;;16.78;97.23;96644.31;5001338;28;20100;-65
2021/06/28 02:23:33;;;;;;;6.50;3.10;;;;;;;16.32;100.00;96644.69;4995870;28;20042;-65
2021/06/28 02:26:02;;;;;;;6.45;3.53;;;;;;;15.92;100.00;96636.63;4982871;28;20050;-64
2021/06/28 02:28:30;;;;;;;5.75;3.80;;;;;;;15.93;100.00;96629.91;4999011;28;20041;-65
2021/06/28 02:30:58;;;;;;;6.65;3.75;;;;;;;15.78;100.00;96633.94;4983363;28;20066;-64
2021/06/28 02:33:24;;;;;;;7.75;4.25;;;;;;;15.65;100.00;96631.63;4996328;28;20723;-64
2021/06/28 02:35:51;;;;;;;10.25;3.97;;;;;;;15.64;100.00;96641.06;5004583;28;20044;-65
2021/06/28 02:38:16;;;;;;;8.30;3.97;;;;;;;15.68;100.00;96647.38;5008981;28;20458;-63
2021/06/28 02:40:42;;;;;;;11.93;4.50;;;;;;;15.81;100.00;96641.41;5001520;28;20065;-64
2021/06/28 02:43:07;;;;;;;6.75;3.50;;;;;;;15.96;100.00;96653.19;4995742;28;20650;-66
2021/06/28 02:45:33;;;;;;;7.15;3.45;;;;;;;15.84;100.00;96638.63;4997461;28;20516;-65
2021/06/28 02:47:58;;;;;;;6.05;3.97;;;;;;;15.64;100.00;96635.53;4999468;28;20164;-65
2021/06/28 02:50:24;;;;;;;7.55;4.00;;;;;;;15.59;100.00;96630.47;5005404;28;20334;-63
2021/06/28 02:52:49;;;;;;;11.02;4.20;;;;;;;15.52;100.00;96632.44;5012372;28;20133;-64
2021/06/28 02:55:15;;;;;;;6.68;4.35;;;;;;;15.48;100.00;96621.44;5000193;28;20072;-64
2021/06/28 02:57:41;;;;;;;10.35;4.22;;;;;;;15.37;100.00;96615.94;4993806;28;20049;-63
2021/06/28 03:00:12;;;;;;;7.90;4.80;;;;;;;15.33;100.00;96617.16;4994154;28;20128;-64
2021/06/28 03:02:38;;;;;;;5.47;3.95;;;;;;;15.29;100.00;96614.41;5009331;28;20137;-64
2021/06/28 03:05:06;;;;;;;7.40;4.72;;;;;;;15.32;100.00;96619.13;5012561;28;20544;-62
2021/06/28 03:07:32;;;;;;;6.65;4.40;;;;;;;15.34;100.00;96622.28;5023797;28;20516;-64
2021/06/28 03:09:58;;;;;;;7.93;4.75;;;;;;;15.36;100.00;96608.88;5020368;28;20124;-63
2021/06/28 03:12:23;;;;;;;7.80;4.30;;;;;;;15.35;100.00;96612.03;5006883;28;20133;-65
2021/06/28 03:14:49;;;;;;;6.63;5.03;;;;;;;15.25;100.00;96608.09;5011087;28;20049;-63
2021/06/28 03:17:14;;;;;;;7.90;4.78;;;;;;;15.21;100.00;96610.88;5008508;28;20137;-64
2021/06/28 03:19:39;;;;;;;8.27;4.53;;;;;;;15.29;100.00;96614.41;5014606;28;20061;-63
2021/06/28 03:22:05;;;;;;;10.55;6.35;;;;;;;15.37;100.00;96620.69;5011448;28;20158;-64
2021/06/28 03:24:30;;;;;;;7.80;4.78;;;;;;;15.40;100.00;96612.41;5023325;28;20041;-66
2021/06/28 03:26:56;;;;;;;8.43;5.38;;;;;;;15.46;100.00;96607.25;5020253;28;20076;-63
2021/06/28 03:29:21;;;;;;;7.65;4.00;;;;;;;15.59;100.00;96597.34;4988962;28;20338;-65
2021/06/28 03:31:47;;;;;;;7.47;3.80;;;;;;;15.82;100.00;96604.34;5004632;28;20410;-64
2021/06/28 03:34:12;;;;;;;4.55;3.28;;;;;;;16.02;100.00;96602.63;5009099;28;20059;-63
2021/06/28 03:36:38;;;;;;;9.00;3.35;;;;;;;16.10;100.00;96605.34;5006051;28;20445;-64
2021/06/28 03:39:04;;;;;;;4.95;3.30;;;;;;;16.17;100.00;96610.81;5008048;28;20041;-62
2021/06/28 03:41:29;;;;;;;6.40;3.50;;;;;;;16.22;100.00;96613.94;5017315;28;20477;-64
2021/06/28 03:43:55;;;;;;;6.22;3.25;;;;;;;16.33;100.00;96599.25;5016986;28;20049;-64
2021/06/28 03:46:20;;;;;;;6.70;3.15;;;;;;;16.43;100.00;96604.69;5020081;28;20110;-65
2021/06/28 03:48:46;;;;;;;4.50;3.05;;;;;;;16.36;99.69;96596.44;5011153;28;20080;-65
2021/06/28 03:51:12;;;;;;;7.75;3.15;;;;;;;15.70;100.00;96590.97;5005636;28;20145;-63
2021/06/28 03:53:37;;;;;;;6.75;4.07;;;;;;;15.30;100.00;96593.91;5010637;28;20084;-64
2021/06/28 03:56:06;;;;;;;8.57;4.15;;;;;;;15.25;100.00;96584.09;5022542;28;20385;-65
2021/06/28 03:58:39;;;;;;;6.10;4.68;;;;;;;15.32;100.00;96585.22;5014508;28;20129;-67
2021/06/28 04:01:06;;;;;;;10.05;4.03;;;;;;;15.47;100.00;96587.53;4995490;28;20479;-64
2021/06/28 04:03:35;;;;;;;5.25;4.03;;;;;;;15.77;100.00;96586.22;5014588;28;20896;-66
2021/06/28 04:06:03;;;;;;;10.13;3.70;;;;;;;16.13;100.00;96580.44;4993926;28;20050;-66
2021/06/28 04:08:29;;;;;;;7.65;3.47;;;;;;;16.53;100.00;96585.66;5007877;28;20154;-66
2021/06/28 04:10:55;;;;;;;7.22;3.20;;;;;;;16.93;100.00;96589.66;5021147;28;20096;-64
2021/06/28 04:13:20;;;;;;;4.93;2.70;;;;;;;17.29;98.08;96583.72;5017325;28;20576;-64
2021/06/28 04:15:46;;;;;;;4.97;3.05;;;;;;;17.53;95.36;96590.13;5002084;28;20038;-64
2021/06/28 04:18:12;;;;;;;6.97;3.10;;;;;;;17.73;93.10;96583.94;5003399;28;20045;-65
2021/06/28 04:20:39;;;;;;;8.35;2.92;;;;;;;17.90;91.84;96582.94;5011056;28;20046;-65
2021/06/28 04:23:05;;;;;;;5.18;2.63;;;;;;;18.15;89.94;96584.56;5018593;28;20489;-64
2021/06/28 04:25:30;;;;;;;6.53;2.70;;;;;;;17.66;90.75;96570.97;5016647;28;20140;-64
2021/06/28 04:27:56;;;;;;;5.85;3.08;;;;;;;17.16;94.41;96583.47;5007139;28;20052;-65
2021/06/28 04:30:22;;;;;;;4.60;3.40;;;;;;;17.32;94.51;96577.34;5002301;28;21062;-65
2021/06/28 04:32:48;;;;;;;6.00;2.90;;;;;;;17.26;94.24;96581.00;5010452;28;20057;-65
2021/06/28 04:35:17;;;;;;;13.13;3.75;;;;;;;16.80;97.57;96583.03;4997314;28;20107;-64
2021/06/28 04:37:43;;;;;;;6.75;3.55;;;;;;;16.78;97.91;96579.88;5002480;28;20038;-67
2021/06/28 04:40:12;;;;;;;4.63;3.42;;;;;;;17.10;95.83;96590.63;5003809;28;20497;-66
2021/06/28 04:42:38;;;;;;;12.95;3.30;;;;;;;17.37;95.20;96579.66;5007558;28;20050;-64
2021/06/28 04:45:04;;;;;;;5.07;3.00;;;;;;;17.34;95.29;96577.72;5005253;28;20406;-61
2021/06/28 04:47:29;;;;;;;6.72;3.72;;;;;;;17.48;95.06;96570.44;5010495;28;20041;-64
2021/06/28 04:49:57;;;;;;;11.52;4.80;;;;;;;17.72;93.53;96571.31;5013187;28;20113;-66
2021/06/28 04:52:22;;;;;;;4.80;2.70;;;;;;;18.36;90.67;96566.00;5018073;28;20053;-66
2021/06/28 04:54:48;;;;;;;5.38;2.53;;;;;;;19.47;85.45;96567.53;5012613;28;20108;-65
2021/06/28 04:57:16;;;;;;;8.00;2.50;;;;;;;19.96;81.61;96566.88;5010160;28;20064;-66
2021/06/28 04:59:42;;;;;;;5.57;2.60;;;;;;;20.05;81.29;96569.06;5019296;28;20422;-64
2021/06/28 05:02:07;;;;;;;3.88;2.42;;;;;;;20.16;80.02;96563.25;5007552;28;20053;-66
2021/06/28 05:04:32;;;;;;;7.35;2.55;;;;;;;20.10;80.63;96559.44;5015557;28;20079;-65
2021/06/28 05:06:58;;;;;;;6.18;2.30;;;;;;;20.08;79.52;96561.84;5029084;28;20068;-65
2021/06/28 05:09:23;;;;;;;5.13;2.50;;;;;;;20.28;79.72;96559.78;4997705;28;20042;-64
2021/06/28 05:11:48;;;;;;;8.32;2.85;;;;;;;20.85;76.77;96565.16;5003139;28;20052;-64
2021/06/28 05:14:14;;;;;;;7.55;2.17;;;;;;;21.67;72.53;96562.09;5004066;28;20045;-65
2021/06/28 05:16:39;;;;;;;3.35;2.30;;;;;;;21.20;74.61;96561.38;5009049;28;20207;-65
2021/06/28 05:19:05;;;;;;;3.08;2.08;;;;;;;21.02;75.21;96563.13;4996511;28;20573;-64
2021/06/28 05:21:30;;;;;;;7.45;2.28;;;;;;;21.81;73.03;96560.88;5009480;28;20417;-64
2021/06/28 05:23:56;;;;;;;4.38;2.20;;;;;;;22.69;68.83;96561.28;5016035;28;20394;-64
2021/06/28 05:26:21;;;;;;;3.67;2.03;;;;;;;22.40;71.53;96570.59;5004951;28;20633;-69
2021/06/28 05:28:47;;;;;;;5.28;2.20;;;;;;;22.42;69.34;96568.16;5003207;28;20057;-64
2021/06/28 05:31:12;;;;;;;3.63;2.10;;;;;;;22.17;70.90;96568.91;5014805;28;20040;-64
2021/06/28 05:33:37;;;;;;;3.03;1.77;;;;;;;21.79;72.26;96564.13;5029792;28;20056;-64
2021/06/28 05:36:03;;;;;;;8.60;2.00;;;;;;;21.62;72.63;96555.06;5018865;28;20042;-62
2021/06/28 05:38:29;;;;;;;3.28;2.10;;;;;;;21.73;72.71;96551.94;5008183;28;20137;-63
2021/06/28 05:40:54;;;;;;;4.78;1.80;;;;;;;21.62;73.62;96549.47;5001149;28;20100;-64
2021/06/28 05:43:20;;;;;;;3.28;1.98;;;;;;;22.08;72.42;96550.06;4997970;28;20045;-64
2021/06/28 05:45:45;;;;;;;3.42;2.03;;;;;;;22.87;68.32;96541.91;5011092;28;20046;-65
2021/06/28 05:48:10;;;;;;;7.50;2.05;;;;;;;22.99;68.06;96537.47;5007897;28;20048;-65
2021/06/28 05:50:36;;;;;;;3.28;1.80;;;;;;;21.62;72.06;96535.53;5011671;28;20037;-65
2021/06/28 05:53:02;;;;;;;3.28;2.03;;;;;;;22.79;69.85;96535.00;5007655;28;20493;-65
2021/06/28 05:55:28;;;;;;;2.53;1.90;;;;;;;22.95;67.83;96533.28;5004597;28;20056;-65
2021/06/28 05:57:54;;;;;;;3.67;1.92;;;;;;;23.58;65.71;96528.59;5011048;28;20112;-65
2021/06/28 06:00:24;;;;;;;5.13;2.08;;;;;;;23.45;66.22;96526.66;5002321;28;20038;-67
2021/06/28 06:02:50;;;;;;;2.80;1.88;;;;;;;22.91;68.23;96525.03;5003260;28;20037;-63
2021/06/28 06:05:16;;;;;;;3.15;1.90;;;;;;;22.83;69.49;96527.28;4999800;28;20041;-64
2021/06/28 06:07:41;;;;;;;4.38;1.98;;;;;;;23.24;66.84;96516.28;5008834;28;20417;-64
2021/06/28 06:10:11;;;;;;;5.60;2.00;;;;;;;22.73;69.07;96516.50;4991736;28;20046;-64
2021/06/28 06:12:36;;;;;;;3.10;2.13;;;;;;;22.55;69.17;96515.09;5000325;28;20100;-64
2021/06/28 06:15:05;;;;;;;5.88;2.10;;;;;;;22.69;70.22;96511.81;5005992;28;20065;-63
2021/06/28 06:17:30;;;;;;;3.63;2.15;;;;;;;22.17;71.38;96504.78;4997111;28;20118;-65
2021/06/28 06:19:56;;;;;;;4.72;2.28;;;;;;;22.71;69.67;96497.41;5001672;28;20092;-64
2021/06/28 06:22:21;;;;;;;6.00;2.25;;;;;;;23.45;68.19;96501.50;4998249;22;21608;-64
2021/06/28 06:24:46;;;;;;;6.03;2.40;;;;;;;23.52;64.88;96496.91;4960350;28;20053;-64
2021/06/28 06:27:12;;;;;;;4.57;1.67;;;;;;;24.84;61.72;96496.34;4962703;28;20093;-63
2021/06/28 06:29:37;;;;;;;3.45;1.90;;;;;;;25.67;59.27;96498.25;4961200;28;20380;-64
2021/06/28 06:32:04;;;;;;;3.15;2.08;;;;;;;24.79;62.72;96496.97;4968187;28;20161;-58
2021/06/28 06:34:29;;;;;;;3.03;1.70;;;;;;;24.29;63.31;96497.03;4973135;28;20054;-65
2021/06/28 06:36:55;;;;;;;5.90;1.80;;;;;;;25.97;57.73;96502.06;4972748;28;20047;-66
2021/06/28 06:39:20;;;;;;;3.50;2.00;;;;;;;25.03;60.34;96504.72;4965103;28;20042;-64
2021/06/28 06:41:47;;;;;;;3.15;2.08;;;;;;;24.14;64.04;96505.22;4975110;28;20472;-63
2021/06/28 06:44:12;;;;;;;4.38;2.33;;;;;;;24.14;63.35;96499.63;4961566;28;20509;-64
2021/06/28 06:46:38;;;;;;;3.58;1.80;;;;;;;24.12;64.24;96509.75;4976086;28;20046;-66
2021/06/28 06:49:05;;;;;;;4.32;1.90;;;;;;;23.57;67.12;96501.88;4976804;28;20046;-64
2021/06/28 06:51:32;;;;;;;3.45;2.00;;;;;;;22.97;68.90;96500.06;4973866;28;20823;-64
2021/06/28 06:53:57;;;;;;;2.33;1.80;;;;;;;25.00;61.90;96492.44;4977999;28;20043;-64
2021/06/28 06:56:22;;;;;;;4.80;3.03;;;;;;;24.45;64.01;96487.56;4965401;28;20046;-65
2021/06/28 06:58:48;;;;;;;8.35;4.20;;;;;;;23.52;67.82;96485.72;4970023;28;20051;-66
2021/06/28 07:01:16;;;;;;;4.70;2.45;;;;;;;24.54;63.09;96495.22;4965280;28;20392;-65
2021/06/28 07:03:46;;;;;;;2.90;1.73;;;;;;;26.59;56.63;96494.22;4972979;28;20038;-64
2021/06/28 07:06:12;;;;;;;3.40;1.98;;;;;;;26.72;56.67;96500.38;4952915;28;20050;-65
2021/06/28 07:08:37;;;;;;;3.92;1.92;;;;;;;26.45;55.77;96501.31;4973122;28;20060;-65
2021/06/28 07:11:06;;;;;;;5.05;1.67;;;;;;;26.41;55.82;96509.16;4972186;28;20050;-63
2021/06/28 07:13:33;;;;;;;3.53;1.90;;;;;;;25.70;58.09;96505.72;4975152;28;20111;-64
2021/06/28 07:15:58;;;;;;;3.00;2.20;;;;;;;23.96;62.12;96505.19;4967047;28;20495;-64
2021/06/28 07:18:23;;;;;;;2.55;1.80;;;;;;;25.46;59.91;96495.22;4973349;28;20137;-64
2021/06/28 07:20:50;;;;;;;2.80;1.85;;;;;;;27.06;54.67;96499.03;4984506;28;20466;-64
2021/06/28 07:23:15;;;;;;;2.80;2.05;;;;;;;26.24;55.70;96495.53;4965783;28;20046;-65
2021/06/28 07:25:41;;;;;;;3.42;2.00;;;;;;;27.38;54.02;96493.72;4979482;28;20045;-63
2021/06/28 07:28:09;;;;;;;3.92;1.60;;;;;;;29.46;48.20;96480.94;4968404;28;20042;-63
2021/06/28 07:30:34;;;;;;;5.18;2.20;;;;;;;26.62;56.06;96496.09;4970737;28;20050;-64
2021/06/28 07:33:00;;;;;;;4.22;2.00;;;;;;;25.80;57.51;96492.44;4968935;28;20035;-65
2021/06/28 07:35:25;;;;;;;4.40;2.28;;;;;;;25.89;56.56;96493.19;4961567;28;20047;-65
2021/06/28 07:37:51;;;;;;;3.30;2.10;;;;;;;26.50;57.91;96490.19;4969474;28;20102;-65
2021/06/28 07:40:19;;;;;;;2.83;1.80;;;;;;;26.73;54.62;96492.75;4978679;28;20042;-64
2021/06/28 07:42:46;;;;;;;2.67;1.85;;;;;;;27.22;56.83;96494.94;4961668;28;20137;-64
2021/06/28 07:45:13;;;;;;;4.78;1.77;;;;;;;26.94;54.41;96493.66;4968646;28;20038;-66
2021/06/28 07:47:40;;;;;;;5.22;1.77;;;;;;;26.98;54.95;96492.22;4970699;28;20047;-65
2021/06/28 07:50:06;;;;;;;5.95;4.20;;;;;;;26.33;56.23;96489.84;4971686;28;20165;-64
2021/06/28 07:52:32;;;;;;;5.53;2.40;;;;;;;26.26;57.52;96483.81;4967104;28;20038;-65
2021/06/28 07:54:59;;;;;;;2.40;1.63;;;;;;;26.98;54.59;96486.59;4981769;28;20125;-66
2021/06/28 07:57:25;;;;;;;3.40;1.85;;;;;;;26.98;56.09;96483.00;4974326;28;20467;-65
2021/06/28 07:59:51;;;;;;;1.80;1.38;;;;;;;26.92;55.75;96479.31;4969984;28;20085;-65
2021/06/28 08:02:16;;;;;;;2.55;1.95;;;;;;;27.61;52.57;96477.25;4970241;28;20468;-65
2021/06/28 08:04:41;;;;;;;5.90;1.80;;;;;;;27.73;51.80;96487.41;4972957;28;20073;-65
2021/06/28 08:07:07;;;;;;;3.00;1.70;;;;;;;26.33;54.15;96494.69;4966695;28;20100;-65
2021/06/28 08:09:32;;;;;;;4.72;1.80;;;;;;;27.15;53.82;96486.91;4982697;28;20138;-66
2021/06/28 08:11:58;;;;;;;4.70;1.70;;;;;;;27.71;51.89;96492.75;4983008;28;20039;-65
2021/06/28 08:14:24;;;;;;;6.15;2.25;;;;;;;27.09;51.52;96486.78;4970294;28;20285;-64
2021/06/28 08:16:51;;;;;;;2.75;1.60;;;;;;;27.35;52.69;96480.66;4970704;28;20043;-64
2021/06/28 08:19:16;;;;;;;3.60;1.63;;;;;;;26.71;53.81;96479.19;4975776;28;20663;-65
2021/06/28 08:21:42;;;;;;;2.50;1.58;;;;;;;26.46;55.45;96472.00;4976685;28;20057;-65
2021/06/28 08:24:09;;;;;;;2.22;1.58;;;;;;;26.30;54.66;96467.56;4961396;28;20129;-66
2021/06/28 08:26:36;;;;;;;5.25;2.08;;;;;;;26.35;55.75;96461.31;4964138;28;20818;-65
2021/06/28 08:29:10;;;;;;;3.10;1.88;;;;;;;26.93;55.27;96458.38;4959906;28;20042;-63
2021/06/28 08:31:39;;;;;;;6.43;2.22;;;;;;;27.06;53.87;96458.88;4934165;28;20046;-65
2021/06/28 08:34:04;;;;;;;5.03;1.92;;;;;;;26.40;55.71;96449.41;4960031;28;20045;-63
2021/06/28 08:36:30;;;;;;;4.63;2.17;;;;;;;27.06;55.54;96445.63;4957935;28;20035;-64
2021/06/28 08:38:57;;;;;;;4.60;1.88;;;;;;;26.81;53.41;96446.94;4957634;28;20041;-66
2021/06/28 08:41:25;;;;;;;4.47;2.25;;;;;;;26.23;55.42;96442.66;4959842;28;20057;-64
2021/06/28 08:43:51;;;;;;;7.63;2.75;;;;;;;26.61;55.05;96441.16;4968700;28;20039;-63
2021/06/28 08:46:17;;;;;;;5.80;2.45;;;;;;;26.93;56.00;96439.50;4969111;28;20122;-63
2021/06/28 08:48:44;;;;;;;4.97;1.90;;;;;;;26.90;54.73;96437.63;4972415;28;20130;-65
2021/06/28 08:51:10;;;;;;;5.43;1.70;;;;;;;26.98;54.23;96435.25;4969681;28;20050;-66
2021/06/28 08:53:36;;;;;;;3.03;1.63;;;;;;;26.72;55.37;96438.56;4962162;28;20070;-66
2021/06/28 08:56:07;;;;;;;2.33;1.63;;;;;;;26.74;55.68;96433.28;4969153;28;20078;-63
2021/06/28 08:58:36;;;;;;;2.58;1.48;;;;;;;27.11;53.50;96427.28;4966688;28;20097;-65
2021/06/28 09:01:02;;;;;;;;;;;;;;;26.92;55.20;96429.53;4959062;28;20043;-63
2021/06/28 09:03:28;;;;;;;1.90;1.30;;;;;;;26.92;54.68;96431.53;4965843;28;20001;-64
2021/06/28 09:06:00;;;;;;;2.50;1.70;;;;;;;27.49;52.18;96433.31;4961863;28;20130;-66
2021/06/28 09:08:26;;;;;;;4.78;1.50;;;;;;;27.88;50.86;96431.09;4971464;28;20046;-65
2021/06/28 09:10:53;;;;;;;3.45;1.75;;;;;;;28.26;50.00;96428.59;4977584;28;20046;-65
2021/06/28 09:13:35;;;;;;;4.78;1.60;;;;;;;27.77;53.91;96426.09;4957213;28;20057;-65
2021/06/28 09:16:15;;;;;;;2.47;1.60;;;;;;;27.39;51.58;96432.66;4968112;28;20043;-65
2021/06/28 09:18:57;;;;;;;2.80;1.80;;;;;;;27.68;51.64;96426.22;4996438;28;20045;-66
2021/06/28 09:21:33;;;;;;;2.10;1.48;;;;;;;27.82;50.52;96428.22;4996316;28;20813;-66
2021/06/28 09:24:01;;;;;;;4.68;1.90;;;;;;;27.68;49.38;96439.47;5005007;28;20046;-65
2021/06/28 09:26:37;;;;;;;2.75;1.45;;;;;;;27.87;49.71;96432.34;4995722;28;20045;-66
2021/06/28 09:29:07;;;;;;;3.95;2.40;;;;;;;27.49;51.16;96428.47;4999091;28;20131;-63
2021/06/28 09:31:34;;;;;;;3.78;2.03;;;;;;;27.56;50.06;96422.44;4984369;28;20046;-65
2021/06/28 09:34:04;;;;;;;2.90;1.73;;;;;;;27.55;50.86;96431.34;4998187;28;20041;-65
2021/06/28 09:36:29;;;;;;;;;;;;;;;27.45;50.91;96431.47;5007786;28;20434;-64
2021/06/28 09:38:55;;;;;;;2.17;1.30;;;;;;;27.93;49.17;96429.66;5001516;28;19932;-65
2021/06/28 09:41:31;;;;;;;5.78;1.30;;;;;;;27.93;49.62;96419.19;4971179;28;20041;-64
2021/06/28 09:44:05;;;;;;;2.92;1.77;;;;;;;28.02;48.62;96418.28;5006063;28;20057;-64
2021/06/28 09:46:31;;;;;;;4.10;1.20;;;;;;;27.95;50.22;96413.84;5005282;28;20050;-64
2021/06/28 09:48:58;;;;;;;8.50;5.10;;;;;;;28.18;48.41;96422.56;5009018;28;20494;-65
2021/06/28 09:51:26;;;;;;;3.58;1.52;;;;;;;27.98;49.26;96417.69;4990745;28;20072;-67
2021/06/28 09:54:05;;;;;;;3.45;1.20;;;;;;;28.53;48.04;96421.75;5007923;28;20122;-66
2021/06/28 09:56:40;;;;;;;;;;;;;;;29.42;46.11;96411.91;4983188;28;20538;-67
2021/06/28 09:59:20;;;;;;;2.80;1.50;;;;;;;29.88;46.14;96411.75;4993890;28;19979;-64
2021/06/28 10:01:48;;;;;;;1.58;1.10;;;;;;;28.84;45.07;96412.63;5005431;28;20539;-65
2021/06/28 10:04:58;;;;;;;5.68;2.70;;;;;;;29.75;43.24;96414.25;4998410;28;20513;-65
2021/06/28 10:07:29;;;;;;;6.00;1.48;;;;;;;29.78;43.91;96401.94;4996292;28;20057;-66
2021/06/28 10:10:19;;;;;;;2.33;1.48;;;;;;;29.73;43.35;96406.25;5026236;28;20037;-66
2021/06/28 10:12:59;;;;;;;3.40;1.17;;;;;;;29.57;43.75;96404.09;5012453;28;20660;-66
2021/06/28 10:15:29;;;;;;;2.97;1.38;;;;;;;29.57;42.62;96417.41;4996403;28;20274;-65
2021/06/28 10:17:54;;;;;;;1.63;1.13;;;;;;;30.08;42.90;96410.09;5013424;28;21583;-66
2021/06/28 10:20:23;;;;;;;1.88;1.20;;;;;;;29.81;42.37;96405.81;5015275;28;20053;-66
2021/06/28 10:22:51;;;;;;;3.27;1.20;;;;;;;30.42;43.10;96405.38;5026609;28;20465;-65
2021/06/28 10:25:20;;;;;;;1.48;1.02;;;;;;;29.59;45.16;96406.41;5021660;28;20073;-64
2021/06/28 10:27:46;;;;;;;1.20;1.00;;;;;;;29.54;43.91;96405.09;5014928;28;20056;-65
2021/06/28 10:30:15;;;;;;;2.67;1.30;;;;;;;30.48;43.28;96403.34;5004346;28;20296;-65
2021/06/28 10:32:43;;;;;;;1.50;1.10;;;;;;;31.54;40.92;96406.16;5013348;28;20046;-66
2021/06/28 10:35:11;;;;;;;3.05;1.10;;;;;;;31.96;40.23;96404.28;5022219;28;20037;-64
2021/06/28 10:37:38;;;;;;;2.33;1.07;;;;;;;32.41;38.38;96397.72;5014381;28;20042;-65
2021/06/28 10:40:13;;;;;;;2.63;1.38;;;;;;;32.72;38.18;96391.69;5009243;28;20058;-62
2021/06/28 10:42:41;;;;;;;3.20;1.83;;;;;;;32.02;39.60;96399.38;5006884;28;20045;-64
2021/06/28 10:45:09;;;;;;;3.33;1.80;;;;;;;31.05;40.59;96395.81;4997966;28;20044;-64
2021/06/28 10:47:35;;;;;;;1.85;1.10;;;;;;;30.80;40.97;96383.41;5012994;28;20058;-65
2021/06/28 10:50:01;;;;;;;1.70;1.20;;;;;;;30.29;39.23;96379.63;4986982;28;20038;-66
2021/06/28 10:52:36;;;;;;;5.28;1.40;;;;;;;30.98;40.55;96378.59;4979690;28;20503;-66
2021/06/28 10:55:21;;;;;;;1.88;1.30;;;;;;;31.90;37.72;96375.97;4985150;28;20045;-65
2021/06/28 10:57:49;;;;;;;1.52;1.13;;;;;;;31.86;39.04;96372.66;4971924;28;20070;-65
2021/06/28 11:00:15;;;;;;;2.08;1.10;;;;;;;32.34;38.40;96368.66;5000578;28;20107;-66
2021/06/28 11:02:42;;;;;;;3.88;1.40;;;;;;;32.72;35.83;96366.16;5013988;28;20143;-64
2021/06/28 11:05:10;;;;;;;5.28;1.23;;;;;;;32.98;37.07;96361.38;5006251;28;20041;-65
2021/06/28 11:07:47;;;;;;;1.52;0.93;;;;;;;32.26;36.63;96364.81;5011485;28;20053;-66
2021/06/28 11:10:37;;;;;;;2.05;1.13;;;;;;;32.89;36.80;96363.22;5020408;28;20042;-65
2021/06/28 11:13:45;;;;;;;1.77;1.10;;;;;;;32.25;37.54;96360.47;5022043;28;20115;-61
2021/06/28 11:16:32;;;;;;;3.42;0.90;;;;;;;32.43;37.54;96358.31;5011556;28;20064;-65
2021/06/28 11:18:58;;;;;;;3.25;1.23;;;;;;;31.44;39.89;96346.97;5012551;28;20040;-65
2021/06/28 11:21:41;;;;;;;2.97;0.98;;;;;;;30.18;40.11;96352.13;4998997;28;20585;-64
2021/06/28 11:24:08;;;;;;;4.38;1.20;;;;;;;30.34;39.23;96345.00;5000174;28;20501;-65
2021/06/28 11:26:35;;;;;;;5.03;1.42;;;;;;;31.55;37.25;96337.72;4996512;28;20585;-67
2021/06/28 11:29:01;;;;;;;4.30;1.20;;;;;;;31.77;37.90;96333.28;5022370;28;20061;-67
2021/06/28 11:31:31;;;;;;;3.85;1.20;;;;;;;30.67;39.50;96332.25;5000756;28;20042;-65
2021/06/28 11:33:59;;;;;;;5.65;1.45;;;;;;;30.49;39.25;96334.25;5008827;28;20113;-64